Time;durP1;ratioP1;P1;durP2;ratioP2;P2;SDS_P1;SDS_P2;PMS_P1;PMS_P2;Temp;Humidity;BMP_temperature;BMP_pressure;BME280_temperature;BME280_humidity;BME280_pressure;Samples;Min_cycle;Max_cycle;Signal;HPM_P1;HPM_P2
2022/07/28 00:01:14;;;;;;;3.45;1.30;;;;;;;14.96;60.02;100668.72;4990297;28;20384;-68
2022/07/28 00:03:41;;;;;;;2.83;1.60;;;;;;;14.98;59.58;100669.19;4990805;28;20427;-69
2022/07/28 00:06:10;;;;;;;2.55;1.50;;;;;;;14.97;60.27;100664.75;4993947;28;20054;-68
2022/07/28 00:08:37;;;;;;;3.67;1.17;;;;;;;14.93;60.05;100661.00;4993894;28;20057;-69
2022/07/28 00:11:07;;;;;;;4.53;1.60;;;;;;;14.93;60.04;100655.38;4990801;28;20057;-66
2022/07/28 00:13:35;;;;;;;5.50;1.50;;;;;;;14.91;60.33;100654.06;4993448;28;20058;-68
2022/07/28 00:16:03;;;;;;;2.85;1.40;;;;;;;14.90;60.32;100655.22;4993509;28;20055;-68
2022/07/28 00:18:30;;;;;;;2.78;1.50;;;;;;;14.87;60.33;100656.72;4993612;28;20062;-69
2022/07/28 00:20:57;;;;;;;2.45;1.50;;;;;;;14.86;60.30;100655.06;4993053;28;20061;-67
2022/07/28 00:23:26;;;;;;;2.03;1.30;;;;;;;14.88;60.30;100652.75;4991655;28;20051;-69
2022/07/28 00:25:53;;;;;;;3.63;1.42;;;;;;;14.89;60.37;100653.56;4993265;28;20070;-69
2022/07/28 00:28:21;;;;;;;3.45;1.33;;;;;;;14.88;60.52;100655.56;4992962;28;20065;-69
2022/07/28 00:30:48;;;;;;;2.13;1.40;;;;;;;14.92;60.59;100659.31;4993617;28;20050;-68
2022/07/28 00:33:15;;;;;;;4.70;1.40;;;;;;;14.92;60.80;100650.09;4990228;28;20160;-69
2022/07/28 00:35:43;;;;;;;2.15;1.30;;;;;;;14.91;60.31;100646.47;4993434;28;20055;-69
2022/07/28 00:38:10;;;;;;;3.42;1.30;;;;;;;14.89;60.72;100653.56;4993218;28;20057;-69
2022/07/28 00:43:23;;;;;;;2.35;1.20;;;;;;;14.91;60.63;100645.63;4987733;28;20057;-69
2022/07/28 00:45:51;;;;;;;3.45;1.65;;;;;;;14.95;60.77;100641.00;4983079;28;20058;-69
2022/07/28 00:48:18;;;;;;;2.67;1.30;;;;;;;14.96;60.44;100637.84;4993076;28;20061;-69
2022/07/28 00:50:46;;;;;;;3.40;1.63;;;;;;;14.98;60.21;100637.53;4992941;28;20050;-69
2022/07/28 00:53:13;;;;;;;2.22;1.33;;;;;;;14.99;60.31;100634.38;4988306;28;20356;-69
2022/07/28 00:55:42;;;;;;;3.58;1.50;;;;;;;15.02;60.46;100630.88;4993402;28;20062;-69
2022/07/28 00:58:10;;;;;;;3.55;1.63;;;;;;;15.06;60.17;100630.22;4992746;28;20380;-69
2022/07/28 01:00:37;;;;;;;3.63;1.65;;;;;;;15.08;60.22;100630.69;4988589;28;20047;-69
2022/07/28 01:03:06;;;;;;;4.15;1.70;;;;;;;15.11;59.96;100633.63;4992611;28;20058;-69
2022/07/28 01:05:44;;;;;;;4.63;1.70;;;;;;;15.13;59.75;100630.50;4992662;28;20065;-68
2022/07/28 01:08:21;;;;;;;3.80;1.30;;;;;;;15.15;59.92;100630.97;4992715;28;20457;-68
2022/07/28 01:10:59;;;;;;;3.40;1.77;;;;;;;15.13;60.20;100636.09;4990086;28;20053;-68
2022/07/28 01:13:33;;;;;;;3.95;1.15;;;;;;;15.14;59.88;100626.50;4990078;28;20050;-69
2022/07/28 01:16:03;;;;;;;2.17;1.20;;;;;;;15.14;60.13;100637.72;4992654;28;20053;-69
2022/07/28 01:18:35;;;;;;;3.63;1.60;;;;;;;15.12;60.59;100632.47;4992565;28;20050;-69
2022/07/28 01:21:08;;;;;;;2.78;1.48;;;;;;;15.09;60.35;100633.16;4991375;28;20058;-68
2022/07/28 01:23:58;;;;;;;3.15;1.35;;;;;;;15.06;60.38;100630.22;4989516;28;20415;-69
2022/07/28 01:26:40;;;;;;;2.45;1.30;;;;;;;15.02;59.90;100630.06;4992282;28;20065;-69
2022/07/28 01:29:29;;;;;;;3.47;1.40;;;;;;;14.97;60.21;100628.28;4972773;28;20388;-69
2022/07/28 01:32:03;;;;;;;3.80;1.60;;;;;;;14.88;60.99;100619.09;4973548;28;20065;-69
2022/07/28 01:34:34;;;;;;;1.95;1.20;;;;;;;14.87;60.60;100617.47;4992380;28;20058;-69
2022/07/28 01:37:10;;;;;;;5.57;1.50;;;;;;;14.87;60.53;100617.47;4988969;28;20073;-69
2022/07/28 01:39:41;;;;;;;3.63;1.40;;;;;;;14.86;60.86;100617.81;4992259;28;20069;-69
2022/07/28 01:42:13;;;;;;;4.15;1.70;;;;;;;14.87;60.86;100616.66;4989407;28;20418;-69
2022/07/28 01:44:43;;;;;;;3.65;1.67;;;;;;;14.88;60.35;100609.88;4988350;28;20050;-69
2022/07/28 01:47:14;;;;;;;2.55;1.38;;;;;;;14.88;60.50;100618.28;4996175;28;20047;-69
2022/07/28 01:49:45;;;;;;;4.03;1.27;;;;;;;14.84;60.77;100611.72;4996250;28;20050;-68
2022/07/28 01:52:14;;;;;;;4.70;1.42;;;;;;;14.79;60.64;100613.56;4994301;28;20062;-68
2022/07/28 01:54:45;;;;;;;1.92;1.40;;;;;;;14.78;60.52;100611.09;4995595;28;20149;-69
2022/07/28 01:57:15;;;;;;;3.10;1.58;;;;;;;14.81;60.33;100613.22;4996128;28;20066;-69
2022/07/28 01:59:43;;;;;;;3.25;1.38;;;;;;;14.81;60.08;100613.22;4996013;28;20054;-68
2022/07/28 02:02:18;;;;;;;4.38;1.65;;;;;;;14.78;60.63;100614.72;4992156;28;20098;-69
2022/07/28 02:04:48;;;;;;;4.47;1.77;;;;;;;14.74;60.58;100604.50;4996050;28;20054;-69
2022/07/28 02:07:17;;;;;;;2.47;1.50;;;;;;;14.70;60.86;100606.34;4995904;28;20050;-69
2022/07/28 02:09:48;;;;;;;;;;;;;;;14.63;61.07;100600.47;4996631;28;20089;-69
2022/07/28 02:12:21;;;;;;;4.40;1.60;;;;;;;14.60;61.20;100602.78;4991479;28;19926;-69
2022/07/28 02:14:50;;;;;;;2.67;1.38;;;;;;;14.56;61.72;100603.81;4996029;28;20061;-68
2022/07/28 02:17:28;;;;;;;3.97;1.65;;;;;;;14.52;61.76;100600.81;4996155;28;20491;-69
2022/07/28 02:19:56;;;;;;;2.60;1.48;;;;;;;14.49;61.88;100601.50;4995812;28;20046;-69
2022/07/28 02:22:26;;;;;;;4.45;1.40;;;;;;;14.42;62.28;100606.81;4993033;28;20054;-69
2022/07/28 02:24:54;;;;;;;;;;;;;;;14.35;62.32;100601.72;4996679;28;20050;-70
2022/07/28 02:27:24;;;;;;;3.95;1.70;;;;;;;14.31;62.10;100600.75;4995719;28;19922;-69
2022/07/28 02:30:01;;;;;;;2.50;1.55;;;;;;;14.24;62.04;100603.28;4995548;28;20074;-69
2022/07/28 02:32:37;;;;;;;2.88;1.40;;;;;;;14.17;62.50;100589.78;4991522;28;20050;-69
2022/07/28 02:35:09;;;;;;;2.72;1.50;;;;;;;14.09;63.04;100599.03;4995656;28;20403;-68
2022/07/28 02:37:39;;;;;;;2.75;1.58;;;;;;;14.06;63.22;100594.09;4995155;28;20054;-69
2022/07/28 02:40:12;;;;;;;3.75;1.77;;;;;;;14.01;62.68;100586.72;4995080;28;20080;-69
2022/07/28 02:42:41;;;;;;;2.92;1.58;;;;;;;13.97;63.06;100590.50;4991609;28;20042;-68
2022/07/28 02:45:11;;;;;;;2.60;1.80;;;;;;;13.94;63.10;100586.41;4991680;28;20058;-68
2022/07/28 02:47:49;;;;;;;3.55;1.92;;;;;;;13.83;63.90;100589.91;4995495;28;20054;-69
2022/07/28 02:50:20;;;;;;;3.75;1.77;;;;;;;13.78;63.73;100582.50;4995587;28;20399;-69
2022/07/28 02:52:49;;;;;;;4.72;1.70;;;;;;;13.73;63.77;100579.88;4992487;28;20072;-69
2022/07/28 02:55:18;;;;;;;2.75;1.77;;;;;;;13.67;63.52;100582.03;4995119;28;20061;-69
2022/07/28 02:57:47;;;;;;;4.28;1.70;;;;;;;13.63;64.04;100580.22;4994249;28;20057;-69
2022/07/28 03:00:15;;;;;;;4.97;2.20;;;;;;;13.51;63.68;100589.31;4992204;28;20050;-69
2022/07/28 03:02:45;;;;;;;4.50;2.10;;;;;;;13.46;64.04;100581.06;4983792;28;20171;-69
2022/07/28 03:05:15;;;;;;;4.05;1.70;;;;;;;13.45;64.29;100590.63;4995011;28;20055;-69
2022/07/28 03:07:43;;;;;;;4.15;1.85;;;;;;;13.38;64.67;100591.13;4994964;28;20062;-69
2022/07/28 03:10:19;;;;;;;2.95;1.60;;;;;;;13.32;64.82;100589.66;4993174;28;20050;-69
2022/07/28 03:12:46;;;;;;;2.35;1.73;;;;;;;13.28;65.14;100589.47;4992507;28;20054;-69
2022/07/28 03:15:14;;;;;;;4.22;1.90;;;;;;;13.27;64.70;100584.19;4994743;28;20061;-69
2022/07/28 03:17:41;;;;;;;5.47;1.92;;;;;;;13.22;65.14;100590.78;4994787;28;20054;-69
2022/07/28 03:20:11;;;;;;;3.25;1.70;;;;;;;13.22;65.33;100592.75;4994361;28;20055;-67
2022/07/28 03:22:39;;;;;;;3.47;1.70;;;;;;;13.16;65.17;100586.50;4990699;28;20055;-69
2022/07/28 03:25:13;;;;;;;3.85;1.83;;;;;;;13.14;65.46;100589.59;4994555;28;20487;-69
2022/07/28 03:27:45;;;;;;;2.35;1.60;;;;;;;13.09;65.54;100577.78;4994329;28;20422;-69
2022/07/28 03:30:15;;;;;;;3.22;1.80;;;;;;;13.05;64.82;100576.78;4994523;28;20058;-69
2022/07/28 03:32:46;;;;;;;4.57;1.83;;;;;;;12.97;65.39;100582.03;4990384;28;20058;-68
2022/07/28 03:35:15;;;;;;;3.58;1.85;;;;;;;12.94;65.19;100582.72;4994566;28;20062;-70
2022/07/28 03:37:58;;;;;;;3.03;1.98;;;;;;;12.91;65.59;100582.53;4994612;28;20077;-69
2022/07/28 03:40:28;;;;;;;4.18;1.98;;;;;;;12.86;65.70;100591.09;4993704;28;20050;-69
2022/07/28 03:42:57;;;;;;;5.45;2.55;;;;;;;12.84;65.48;100588.63;4994316;28;20054;-69
2022/07/28 03:45:25;;;;;;;4.23;2.50;;;;;;;12.84;65.58;100588.63;4994131;28;20054;-69
2022/07/28 03:47:54;;;;;;;3.70;1.98;;;;;;;12.81;65.63;100594.88;4994249;28;20480;-69
2022/07/28 03:50:27;;;;;;;3.15;1.73;;;;;;;12.82;65.93;100599.31;4991847;28;20055;-70
2022/07/28 03:52:56;;;;;;;4.57;2.03;;;;;;;12.78;66.20;100584.31;4993841;28;20498;-69
2022/07/28 03:55:24;;;;;;;3.88;2.28;;;;;;;12.74;66.08;100594.50;4994052;28;20482;-69
2022/07/28 03:57:52;;;;;;;3.08;2.17;;;;;;;12.71;66.31;100586.78;4993998;28;20058;-69
2022/07/28 04:00:20;;;;;;;2.75;2.00;;;;;;;12.69;66.33;100587.13;4989039;28;20051;-69
2022/07/28 04:02:48;;;;;;;4.65;1.98;;;;;;;12.70;66.13;100590.72;4993733;28;20463;-70
2022/07/28 04:05:17;;;;;;;4.32;2.13;;;;;;;12.70;66.37;100599.09;4993970;28;20499;-69
2022/07/28 04:07:46;;;;;;;5.40;2.40;;;;;;;12.72;67.36;100596.81;4993063;28;20054;-69
2022/07/28 04:10:15;;;;;;;5.13;1.88;;;;;;;12.77;66.90;100602.25;4983471;28;20047;-69
2022/07/28 04:12:47;;;;;;;4.47;2.20;;;;;;;12.81;66.85;100592.06;4974290;28;20059;-69
2022/07/28 04:15:15;;;;;;;2.85;1.98;;;;;;;12.89;66.58;100596.00;4974060;28;20442;-69
2022/07/28 04:17:43;;;;;;;3.03;2.20;;;;;;;12.97;65.86;100592.41;4974001;28;20055;-69
2022/07/28 04:20:12;;;;;;;3.85;2.10;;;;;;;12.97;66.15;100587.63;4979629;28;20058;-69
2022/07/28 04:22:39;;;;;;;4.40;1.98;;;;;;;13.00;66.25;100587.00;4993372;28;20059;-70
2022/07/28 04:25:09;;;;;;;6.28;2.50;;;;;;;13.07;66.46;100585.69;4993288;28;20388;-69
2022/07/28 04:27:36;;;;;;;5.45;2.25;;;;;;;13.08;66.00;100588.16;4993223;28;20054;-69
2022/07/28 04:30:05;;;;;;;3.55;2.17;;;;;;;13.14;65.83;100594.38;4989791;28;20058;-69
2022/07/28 04:32:32;;;;;;;5.38;1.80;;;;;;;13.24;65.82;100593.25;4973557;28;20050;-69
2022/07/28 04:35:00;;;;;;;3.92;2.10;;;;;;;13.29;65.46;100587.50;4973785;28;20058;-69
2022/07/28 04:37:27;;;;;;;5.40;2.08;;;;;;;13.35;64.89;100587.00;4974014;28;20055;-69
2022/07/28 04:39:54;;;;;;;4.43;1.90;;;;;;;13.39;65.32;100587.97;4973839;28;20062;-69
2022/07/28 04:42:24;;;;;;;3.95;1.83;;;;;;;13.52;64.76;100588.13;4990638;28;20054;-69
2022/07/28 04:44:51;;;;;;;4.72;2.33;;;;;;;13.53;64.72;100587.81;4993387;28;20050;-68
2022/07/28 04:47:18;;;;;;;3.70;2.28;;;;;;;13.62;64.93;100584.19;4992911;28;20055;-69
2022/07/28 04:49:46;;;;;;;4.72;2.00;;;;;;;13.68;64.67;100577.25;4992921;28;20058;-69
2022/07/28 04:52:14;;;;;;;4.68;2.15;;;;;;;13.76;64.75;100580.03;4989032;28;20391;-69
2022/07/28 04:54:41;;;;;;;8.15;2.55;;;;;;;13.85;64.34;100581.97;4983389;28;20055;-70
2022/07/28 04:57:10;;;;;;;3.90;1.98;;;;;;;13.91;64.37;100587.06;4973382;28;20051;-70
2022/07/28 04:59:39;;;;;;;4.53;2.27;;;;;;;13.97;64.34;100579.31;4983386;28;20057;-69
2022/07/28 05:02:06;;;;;;;4.67;2.30;;;;;;;14.00;64.24;100585.03;4992559;28;20053;-69
2022/07/28 05:04:34;;;;;;;3.83;2.03;;;;;;;14.08;64.10;100579.78;4989891;28;20054;-69
2022/07/28 05:07:01;;;;;;;5.30;2.10;;;;;;;14.10;64.20;100583.88;4979364;28;20051;-69
2022/07/28 05:09:28;;;;;;;3.55;2.10;;;;;;;14.19;64.13;100584.69;4985951;28;20058;-69
2022/07/28 05:11:56;;;;;;;3.33;2.10;;;;;;;14.23;63.51;100584.81;4988833;28;20046;-69
2022/07/28 05:14:23;;;;;;;4.15;2.67;;;;;;;14.28;63.33;100583.78;4989814;28;20061;-69
2022/07/28 05:16:52;;;;;;;9.30;2.50;;;;;;;14.33;63.49;100575.22;4984006;28;20050;-69
2022/07/28 05:19:19;;;;;;;6.68;2.60;;;;;;;14.26;63.87;100577.69;4985530;28;20406;-69
2022/07/28 05:21:46;;;;;;;4.30;2.40;;;;;;;14.35;63.87;100584.09;4990054;28;20050;-69
2022/07/28 05:24:14;;;;;;;3.85;2.70;;;;;;;14.41;63.73;100591.16;4989952;28;20050;-69
2022/07/28 05:26:41;;;;;;;5.10;3.00;;;;;;;14.37;64.00;100576.19;4987368;28;20516;-50
2022/07/28 05:29:08;;;;;;;4.80;3.08;;;;;;;14.13;65.33;100586.00;4984036;28;20054;-51
2022/07/28 05:31:36;;;;;;;4.57;2.70;;;;;;;14.18;65.26;100577.41;4990800;28;20046;-47
2022/07/28 05:34:05;;;;;;;6.85;3.55;;;;;;;14.37;65.16;100577.00;4990178;28;20066;-48
2022/07/28 05:36:32;;;;;;;6.43;3.08;;;;;;;14.57;64.97;100578.25;4985655;28;20055;-48
2022/07/28 05:39:00;;;;;;;4.53;3.10;;;;;;;14.73;64.79;100580.44;4982531;28;20440;-47
2022/07/28 05:41:27;;;;;;;5.75;3.53;;;;;;;14.72;64.65;100581.59;4986629;28;20509;-46
2022/07/28 05:43:54;;;;;;;4.93;3.47;;;;;;;14.45;65.45;100577.28;4992481;28;20050;-47
2022/07/28 05:46:21;;;;;;;5.38;3.05;;;;;;;14.70;65.28;100587.56;4992413;28;20054;-47
2022/07/28 05:48:50;;;;;;;6.32;3.38;;;;;;;14.86;64.51;100578.53;4985243;28;20051;-47
2022/07/28 05:51:19;;;;;;;5.95;2.88;;;;;;;14.84;64.76;100572.44;4985198;28;20055;-47
2022/07/28 05:53:46;;;;;;;3.42;2.50;;;;;;;15.07;64.26;100578.53;4991008;28;20054;-48
2022/07/28 05:56:13;;;;;;;4.78;2.88;;;;;;;15.38;63.12;100580.94;4992669;28;20355;-49
2022/07/28 05:58:41;;;;;;;7.78;3.10;;;;;;;15.51;62.66;100574.19;4992251;28;20487;-46
2022/07/28 06:01:08;;;;;;;7.32;3.28;;;;;;;15.82;61.68;100579.34;4990512;28;20046;-46
2022/07/28 06:03:35;;;;;;;7.10;2.88;;;;;;;15.77;61.94;100575.91;4990228;28;20065;-46
2022/07/28 06:06:04;;;;;;;5.28;2.45;;;;;;;15.92;60.98;100580.88;4991854;28;20046;-48
2022/07/28 06:08:33;;;;;;;4.32;2.50;;;;;;;16.17;60.12;100578.13;4991872;28;20065;-48
2022/07/28 06:11:07;;;;;;;5.30;2.63;;;;;;;16.30;59.84;100571.34;4992078;28;20061;-47
2022/07/28 06:13:36;;;;;;;4.68;2.80;;;;;;;16.43;59.29;100581.41;4986393;28;20062;-46
2022/07/28 06:16:03;;;;;;;3.90;2.60;;;;;;;16.44;59.19;100582.22;4989479;28;20495;-48
2022/07/28 06:18:31;;;;;;;4.85;2.40;;;;;;;16.50;58.99;100580.81;4991332;28;20061;-46
2022/07/28 06:20:58;;;;;;;8.25;2.28;;;;;;;16.57;58.54;100583.06;4973245;28;20055;-65
2022/07/28 06:23:25;;;;;;;4.75;2.70;;;;;;;16.73;58.41;100580.31;4980834;28;20058;-65
2022/07/28 06:25:54;;;;;;;6.32;2.72;;;;;;;16.81;58.11;100576.59;4972353;28;20503;-65
2022/07/28 06:28:22;;;;;;;7.87;2.30;;;;;;;16.94;57.74;100581.00;4971949;28;20058;-65
2022/07/28 06:30:49;;;;;;;5.85;2.20;;;;;;;17.09;57.33;100579.44;4972239;28;20483;-65
2022/07/28 06:33:17;;;;;;;4.68;2.35;;;;;;;17.25;56.62;100571.09;4979743;28;20065;-65
2022/07/28 06:35:44;;;;;;;5.85;2.58;;;;;;;17.38;56.17;100564.22;4995285;28;20054;-66
2022/07/28 06:38:12;;;;;;;5.53;2.10;;;;;;;17.48;56.14;100567.72;4987616;28;20054;-65
2022/07/28 06:40:42;;;;;;;7.28;2.63;;;;;;;17.52;55.94;100569.44;4968319;28;20066;-65
2022/07/28 06:43:12;;;;;;;5.55;2.10;;;;;;;17.68;55.74;100560.22;4970641;28;20526;-64
2022/07/28 06:45:40;;;;;;;3.92;2.30;;;;;;;17.81;55.31;100561.78;4982437;28;20050;-65
2022/07/28 06:48:07;;;;;;;4.95;1.90;;;;;;;17.94;54.84;100563.38;4973915;28;20121;-65
2022/07/28 06:50:38;;;;;;;6.03;2.03;;;;;;;18.06;54.50;100559.66;4985642;28;20054;-66
2022/07/28 06:53:05;;;;;;;5.65;2.00;;;;;;;18.10;53.95;100554.09;4976104;28;20047;-64
2022/07/28 06:55:33;;;;;;;5.00;2.15;;;;;;;18.19;54.24;100560.38;4974786;28;20070;-64
2022/07/28 06:58:01;;;;;;;7.72;2.50;;;;;;;18.28;54.18;100557.38;4980579;28;20055;-64
2022/07/28 07:00:29;;;;;;;5.05;1.95;;;;;;;18.44;53.81;100569.47;4978164;28;20055;-66
2022/07/28 07:02:57;;;;;;;3.05;1.75;;;;;;;18.50;53.37;100559.53;4987248;28;20069;-65
2022/07/28 07:05:26;;;;;;;5.03;1.80;;;;;;;18.58;52.65;100560.50;4977621;28;20050;-65
2022/07/28 07:07:53;;;;;;;;;;;;;;;18.57;52.34;100559.69;4979216;28;20054;-66
2022/07/28 07:10:20;;;;;;;4.45;1.63;;;;;;;18.77;52.58;100560.59;4989199;28;19937;-65
2022/07/28 07:12:48;;;;;;;4.07;1.80;;;;;;;18.84;52.16;100554.31;4971928;28;20496;-65
2022/07/28 07:15:15;;;;;;;5.13;1.70;;;;;;;18.99;51.05;100552.63;4982392;28;20061;-65
2022/07/28 07:17:44;;;;;;;4.90;1.80;;;;;;;19.12;50.91;100558.94;4994278;28;20050;-65
2022/07/28 07:20:13;;;;;;;5.97;1.75;;;;;;;19.28;50.36;100559.69;4979180;28;20057;-64
2022/07/28 07:22:43;;;;;;;4.38;1.83;;;;;;;19.41;49.92;100555.50;4978889;28;20058;-65
2022/07/28 07:25:12;;;;;;;7.38;1.80;;;;;;;19.41;49.20;100561.16;4975590;28;20054;-65
2022/07/28 07:27:39;;;;;;;2.40;1.10;;;;;;;19.59;49.23;100557.88;4981487;28;20056;-65
2022/07/28 07:30:08;;;;;;;5.82;1.58;;;;;;;19.82;48.78;100557.94;4979186;28;20057;-65
2022/07/28 07:32:36;;;;;;;3.63;1.30;;;;;;;20.00;48.48;100553.41;4989176;28;20422;-64
2022/07/28 07:35:05;;;;;;;3.72;1.67;;;;;;;20.25;47.41;100551.03;4987404;28;20486;-64
2022/07/28 07:37:33;;;;;;;3.45;1.38;;;;;;;20.43;46.79;100553.31;4991715;28;20065;-65
2022/07/28 07:40:00;;;;;;;4.72;1.63;;;;;;;20.58;46.68;100538.25;4983692;28;20046;-64
2022/07/28 07:42:28;;;;;;;3.60;1.42;;;;;;;20.97;45.84;100540.81;4985458;28;20502;-67
2022/07/28 07:44:56;;;;;;;5.63;1.58;;;;;;;21.60;43.30;100536.34;4986042;28;20430;-64
2022/07/28 07:47:23;;;;;;;5.45;1.50;;;;;;;21.99;43.52;100535.94;4984094;28;20065;-65
2022/07/28 07:49:50;;;;;;;2.67;1.42;;;;;;;22.94;41.89;100522.03;4984121;28;20081;-65
2022/07/28 07:52:19;;;;;;;3.28;1.25;;;;;;;23.76;39.49;100526.41;4992340;28;20050;-65
2022/07/28 07:54:46;;;;;;;3.78;1.20;;;;;;;24.53;38.64;100521.19;4987853;28;20058;-65
2022/07/28 07:57:13;;;;;;;4.45;1.65;;;;;;;25.24;36.83;100516.50;4981272;28;20059;-65
2022/07/28 07:59:41;;;;;;;4.95;1.90;;;;;;;25.61;36.04;100518.75;4986819;28;20081;-65
2022/07/28 08:02:08;;;;;;;4.13;1.60;;;;;;;25.61;35.76;100517.97;4990676;28;20058;-61
2022/07/28 08:04:36;;;;;;;3.90;1.73;;;;;;;26.70;33.98;100514.63;4995983;28;20062;-61
2022/07/28 08:07:03;;;;;;;4.95;1.50;;;;;;;27.32;32.61;100509.84;4990238;28;20057;-62
2022/07/28 08:09:32;;;;;;;5.13;1.38;;;;;;;28.41;31.29;100509.00;4993793;28;20060;-62
2022/07/28 08:11:59;;;;;;;;;;;;;;;29.43;30.10;100509.47;4992402;28;20053;-61
2022/07/28 08:14:27;;;;;;;3.90;1.50;;;;;;;30.38;28.59;100506.84;4987021;28;19929;-61
2022/07/28 08:16:55;;;;;;;7.70;1.90;;;;;;;31.13;27.19;100501.91;4995877;28;20050;-62
2022/07/28 08:19:22;;;;;;;4.40;1.38;;;;;;;31.27;27.17;100506.44;4986193;28;20065;-61
2022/07/28 08:21:49;;;;;;;2.85;1.33;;;;;;;32.32;25.91;100498.97;4992499;28;20086;-62
2022/07/28 08:24:17;;;;;;;3.95;1.60;;;;;;;33.00;24.66;100498.63;4997151;28;20058;-61
2022/07/28 08:26:45;;;;;;;4.53;1.70;;;;;;;33.76;23.85;100497.34;4985822;28;20050;-62
2022/07/28 08:29:12;;;;;;;;;;;;;;;34.67;23.29;100487.31;4982697;28;20466;-62
2022/07/28 08:31:40;;;;;;;4.10;1.42;;;;;;;35.56;21.29;100493.13;4987793;28;19922;-62
2022/07/28 08:34:07;;;;;;;9.18;2.00;;;;;;;36.44;20.31;100492.06;4985480;28;20058;-62
2022/07/28 08:36:34;;;;;;;2.95;1.30;;;;;;;37.18;19.58;100489.34;5000173;28;20053;-63
2022/07/28 08:39:02;;;;;;;3.30;1.30;;;;;;;37.74;19.04;100486.63;4985473;28;20050;-62
2022/07/28 08:41:36;;;;;;;5.13;1.40;;;;;;;38.16;18.68;100485.44;4981200;28;20046;-62
2022/07/28 08:44:08;;;;;;;3.28;1.40;;;;;;;37.21;19.11;100496.25;4981786;28;20050;-63
2022/07/28 08:46:36;;;;;;;2.83;1.60;;;;;;;37.63;19.05;100485.63;4990569;28;20404;-62
2022/07/28 08:49:08;;;;;;;4.18;1.63;;;;;;;37.41;18.45;100481.03;4979250;28;20057;-63
2022/07/28 08:51:37;;;;;;;5.05;1.33;;;;;;;37.28;18.77;100474.75;4986675;28;20046;-62
2022/07/28 08:54:06;;;;;;;4.13;1.48;;;;;;;37.73;18.55;100476.28;4981099;28;20059;-63
2022/07/28 08:56:38;;;;;;;4.13;1.58;;;;;;;38.87;17.62;100481.56;4987357;28;20054;-62
2022/07/28 08:59:07;;;;;;;2.47;1.25;;;;;;;39.42;16.53;100468.91;4983919;28;20170;-63
2022/07/28 09:01:35;;;;;;;3.75;1.80;;;;;;;38.78;17.47;100486.22;4986009;28;20486;-62
2022/07/28 09:04:02;;;;;;;4.82;1.73;;;;;;;39.18;17.05;100472.91;4987912;28;20046;-62
2022/07/28 09:06:30;;;;;;;3.33;1.50;;;;;;;39.72;16.69;100471.53;4990830;28;20073;-62
2022/07/28 09:08:57;;;;;;;4.63;1.80;;;;;;;40.94;15.48;100474.81;4981199;28;20050;-62
2022/07/28 09:11:27;;;;;;;5.07;2.22;;;;;;;41.98;14.92;100485.50;4987308;28;20411;-62
2022/07/28 09:13:54;;;;;;;4.25;1.67;;;;;;;42.89;14.28;100477.22;4989041;28;20054;-62
2022/07/28 09:16:23;;;;;;;4.68;1.63;;;;;;;43.63;13.57;100474.50;4986341;28;20050;-63
2022/07/28 09:18:50;;;;;;;3.40;1.92;;;;;;;43.62;13.47;100466.25;4987259;28;20110;-62
2022/07/28 09:21:17;;;;;;;3.95;1.30;;;;;;;44.24;12.92;100468.59;4987844;28;20054;-62
2022/07/28 09:23:48;;;;;;;4.80;1.50;;;;;;;43.72;12.99;100470.44;4982766;28;20042;-62
2022/07/28 09:26:16;;;;;;;4.13;1.70;;;;;;;43.53;13.47;100465.25;4989026;28;20066;-62
2022/07/28 09:28:48;;;;;;;4.38;1.48;;;;;;;43.99;13.52;100472.28;4986550;28;20054;-63
2022/07/28 09:31:16;;;;;;;3.63;1.35;;;;;;;43.31;13.41;100471.34;4979262;28;20062;-62
2022/07/28 09:33:55;;;;;;;2.92;1.58;;;;;;;44.50;12.64;100473.88;4982108;28;20051;-62
2022/07/28 09:36:23;;;;;;;3.55;1.60;;;;;;;44.44;12.77;100468.06;4986485;28;20058;-62
2022/07/28 09:38:51;;;;;;;5.20;1.80;;;;;;;45.25;12.75;100461.31;4987533;28;20061;-62
2022/07/28 09:41:20;;;;;;;5.78;1.75;;;;;;;45.38;11.55;100466.44;4988806;28;20426;-62
2022/07/28 09:43:49;;;;;;;3.90;1.60;;;;;;;45.92;12.08;100458.53;4982238;28;20063;-62
2022/07/28 09:46:19;;;;;;;3.38;1.60;;;;;;;46.43;11.54;100449.50;4988213;28;20121;-62
2022/07/28 09:48:52;;;;;;;3.88;2.15;;;;;;;47.18;11.10;100456.91;4989239;28;20415;-62
2022/07/28 09:51:23;;;;;;;2.47;1.60;;;;;;;47.74;11.00;100445.81;4983147;28;20054;-62
2022/07/28 09:53:50;;;;;;;4.93;1.70;;;;;;;48.24;10.70;100454.63;4988257;28;20042;-62
2022/07/28 09:56:17;;;;;;;4.68;1.70;;;;;;;48.21;10.43;100443.94;4989136;28;20106;-62
2022/07/28 09:58:54;;;;;;;2.13;1.40;;;;;;;48.29;10.03;100438.13;4990775;28;20053;-62
2022/07/28 10:01:21;;;;;;;5.00;1.70;;;;;;;47.12;11.04;100443.63;4987152;28;20407;-62
2022/07/28 10:03:49;;;;;;;;;;;;;;;47.52;10.67;100443.44;4983793;28;20053;-61
2022/07/28 10:06:26;;;;;;;3.67;1.42;;;;;;;47.37;10.73;100444.09;4988437;28;19929;-62
2022/07/28 10:08:55;;;;;;;4.18;1.58;;;;;;;47.45;10.37;100436.09;4989217;28;20050;-62
2022/07/28 10:11:25;;;;;;;3.38;1.60;;;;;;;46.89;10.74;100431.59;4993408;28;20069;-63
2022/07/28 10:13:58;;;;;;;4.43;1.70;;;;;;;46.95;11.23;100430.09;4995776;28;20057;-62
2022/07/28 10:16:27;;;;;;;3.20;1.40;;;;;;;47.44;10.52;100425.69;4995214;28;20061;-64
2022/07/28 10:18:55;;;;;;;5.72;2.00;;;;;;;47.53;10.67;100431.09;4994822;28;20062;-64
2022/07/28 10:21:26;;;;;;;5.25;1.80;;;;;;;47.44;10.35;100428.63;4987133;28;20058;-63
2022/07/28 10:23:55;;;;;;;2.67;1.67;;;;;;;47.65;10.34;100424.88;4988090;28;20046;-64
2022/07/28 10:26:28;;;;;;;3.35;1.70;;;;;;;48.44;9.85;100422.63;4993793;28;20065;-64
2022/07/28 10:28:56;;;;;;;3.75;2.03;;;;;;;48.33;10.33;100427.50;4989574;28;20069;-64
2022/07/28 10:31:35;;;;;;;3.40;1.42;;;;;;;48.70;9.83;100412.66;4981742;28;20051;-63
2022/07/28 10:34:05;;;;;;;3.53;1.67;;;;;;;48.94;9.71;100418.06;4969834;28;20053;-63
2022/07/28 10:36:35;;;;;;;6.65;2.20;;;;;;;48.53;9.28;100410.22;4973546;28;20058;-63
2022/07/28 10:39:15;;;;;;;2.70;1.85;;;;;;;48.06;10.57;100411.38;4975563;28;20058;-64
2022/07/28 10:41:43;;;;;;;3.25;1.60;;;;;;;48.74;9.34;100407.97;4972818;28;20058;-64
2022/07/28 10:44:13;;;;;;;3.00;1.50;;;;;;;48.63;9.40;100407.53;4968992;28;20042;-63
2022/07/28 10:46:43;;;;;;;3.35;1.38;;;;;;;48.48;9.92;100403.13;4975198;28;20384;-63
2022/07/28 10:49:12;;;;;;;3.47;1.77;;;;;;;48.28;10.32;100404.84;4975759;28;20415;-64
2022/07/28 10:51:42;;;;;;;2.92;1.55;;;;;;;48.89;9.41;100410.16;4975040;28;20059;-63
2022/07/28 10:54:18;;;;;;;3.67;1.98;;;;;;;48.91;9.27;100403.66;4969232;28;20094;-63
2022/07/28 10:56:50;;;;;;;4.13;1.63;;;;;;;49.00;9.01;100396.41;4970329;28;20058;-63
2022/07/28 10:59:53;;;;;;;2.97;1.92;;;;;;;49.07;9.20;100396.41;4983662;28;20054;-63
2022/07/28 11:02:45;;;;;;;3.17;1.70;;;;;;;48.96;9.17;100399.72;4969872;28;20408;-63
2022/07/28 11:05:27;;;;;;;2.28;1.45;;;;;;;48.42;10.06;100393.66;4956099;28;20444;-63
2022/07/28 11:07:56;;;;;;;2.95;1.50;;;;;;;48.07;10.27;100396.03;4968999;28;20050;-63
2022/07/28 11:10:24;;;;;;;3.88;1.55;;;;;;;47.82;10.21;100403.72;4977942;28;20058;-63
2022/07/28 11:12:53;;;;;;;4.28;1.75;;;;;;;47.92;9.90;100399.69;4981013;28;20054;-63
2022/07/28 11:15:32;;;;;;;3.58;1.77;;;;;;;48.18;10.34;100395.69;4964066;28;20054;-63
2022/07/28 11:18:05;;;;;;;4.70;1.83;;;;;;;47.73;9.94;100393.25;4968064;28;20510;-63
2022/07/28 11:21:09;;;;;;;3.15;1.40;;;;;;;47.53;9.90;100391.94;4974092;28;20449;-63
2022/07/28 11:23:45;;;;;;;3.95;1.58;;;;;;;46.92;10.43;100395.09;4964238;28;20059;-63
2022/07/28 11:26:40;;;;;;;3.70;1.70;;;;;;;46.77;10.47;100393.56;4985930;28;20077;-63
2022/07/28 11:29:15;;;;;;;2.90;1.33;;;;;;;46.63;10.82;100389.03;4981439;28;20050;-63
2022/07/28 11:32:06;;;;;;;4.47;1.42;;;;;;;46.40;10.45;100385.03;4968348;28;20047;-63
2022/07/28 11:35:08;;;;;;;3.03;1.60;;;;;;;46.10;10.69;100374.44;4973982;28;20403;-63
2022/07/28 11:38:09;;;;;;;3.20;1.60;;;;;;;45.90;11.45;100373.72;4969942;28;20514;-63
2022/07/28 11:40:40;;;;;;;2.50;1.45;;;;;;;46.21;11.38;100374.19;4974001;28;20153;-63
2022/07/28 11:43:33;;;;;;;3.88;1.70;;;;;;;46.55;10.57;100367.53;4978182;28;20062;-63